Time;durP1;ratioP1;P1;durP2;ratioP2;P2;SDS_P1;SDS_P2;PMS_P1;PMS_P2;Temp;Humidity;BMP_temperature;BMP_pressure;BME280_temperature;BME280_humidity;BME280_pressure;Samples;Min_cycle;Max_cycle;Signal;HPM_P1;HPM_P2
2022/12/05 00:00:12;;;;;;;;;;;2.60;99.90;;;1.70;100.00;97038.53;5043688;28;20212;-44
2022/12/05 00:02:38;;;;;;;;;;;2.60;99.90;;;1.67;100.00;97040.31;5030460;28;19947;-42
2022/12/05 00:05:03;;;;;;;;;;;2.60;99.90;;;1.71;100.00;97039.44;5033850;28;20872;-43
2022/12/05 00:07:29;;;;;;;;;;;2.60;99.90;;;1.70;100.00;97032.50;5036730;28;19912;-43
2022/12/05 00:09:55;;;;;;;;;;;2.60;99.90;;;1.71;100.00;97042.88;5029616;28;19916;-44
2022/12/05 00:12:20;;;;;;;;;;;2.60;99.90;;;1.69;100.00;97033.38;5023419;28;19923;-43
2022/12/05 00:14:46;;;;;;;;;;;2.60;99.90;;;1.65;100.00;97029.94;5033738;28;19917;-43
2022/12/05 00:17:11;;;;;;;;;;;2.60;99.90;;;1.60;100.00;97029.09;5027730;28;21276;-44
2022/12/05 00:19:38;;;;;;;;;;;2.60;99.90;;;1.63;100.00;97046.41;5025875;28;19948;-44
2022/12/05 00:22:04;;;;;;;;;;;2.60;99.90;;;1.59;100.00;97026.53;5028649;28;20019;-43
2022/12/05 00:24:29;;;;;;;;;;;2.60;99.90;;;1.59;100.00;97045.56;5030362;28;19920;-43
2022/12/05 00:26:55;;;;;;;;;;;2.60;99.90;;;1.62;100.00;97037.75;5038547;28;19916;-44
2022/12/05 00:29:20;;;;;;;;;;;2.60;99.90;;;1.65;100.00;97029.94;5039038;28;20754;-43
2022/12/05 00:31:46;;;;;;;;;;;2.50;99.90;;;1.63;100.00;97033.41;5035679;28;19969;-43
2022/12/05 00:34:12;;;;;;;;;;;2.50;99.90;;;1.59;100.00;97022.16;5032105;28;21303;-43
2022/12/05 00:36:37;;;;;;;;;;;2.50;99.90;;;1.61;100.00;97035.16;5056273;28;19921;-43
2022/12/05 00:39:07;;;;;;;;;;;2.60;99.90;;;1.61;100.00;97040.34;5048577;28;20011;-44
2022/12/05 00:41:33;;;;;;;;;;;2.60;99.90;;;1.58;100.00;97033.47;5048518;28;19924;-43
2022/12/05 00:43:59;;;;;;;;;;;2.60;99.90;;;1.61;100.00;97035.16;5051906;28;19939;-43
2022/12/05 00:46:26;;;;;;;;;;;2.50;99.90;;;1.64;100.00;97043.81;5042615;28;19924;-45
2022/12/05 00:48:53;;;;;;;;;;;2.60;99.90;;;1.64;100.00;97043.81;5027809;28;19958;-44
2022/12/05 00:51:27;;;;;;;;;;;2.60;99.90;;;1.68;100.00;97047.25;5042537;28;20368;-43
2022/12/05 00:53:53;;;;;;;;;;;2.60;99.90;;;1.70;100.00;97048.94;5034989;28;19917;-41
2022/12/05 00:56:24;;;;;;;;;;;2.60;99.90;;;1.70;100.00;97045.50;5033669;28;19928;-41
2022/12/05 00:58:51;;;;;;;;;;;2.60;99.90;;;1.73;100.00;97044.63;5032942;28;19924;-41
2022/12/05 01:01:25;;;;;;;;;;;2.60;99.90;;;1.73;100.00;97050.66;5042083;28;19920;-41
2022/12/05 01:03:53;;;;;;;;;;;2.60;99.90;;;1.73;100.00;97066.28;5047458;28;19920;-40
2022/12/05 01:06:20;;;;;;;;;;;2.60;99.90;;;1.60;100.00;97043.81;5034071;28;19920;-41
2022/12/05 01:08:46;;;;;;;;;;;2.70;99.90;;;1.78;100.00;97066.25;5034655;28;19916;-40
2022/12/05 01:11:15;;;;;;;;;;;2.70;99.90;;;1.78;100.00;97074.06;5033343;28;19928;-41
2022/12/05 01:13:40;;;;;;;;;;;2.70;99.90;;;1.78;100.00;97068.84;5024942;28;19927;-41
2022/12/05 01:16:06;;;;;;;;;;;2.70;99.90;;;1.81;100.00;97089.59;5031988;28;20244;-42
2022/12/05 01:18:32;;;;;;;;;;;2.70;99.90;;;1.80;100.00;97093.09;5031249;28;19920;-43
2022/12/05 01:20:57;;;;;;;;;;;2.70;99.90;;;1.65;100.00;97068.94;5038398;28;19973;-41
2022/12/05 01:23:23;;;;;;;;;;;2.70;99.90;;;1.83;100.00;97093.06;5036231;28;19967;-41
2022/12/05 01:25:51;;;;;;;;;;;2.70;99.90;;;1.84;100.00;97089.59;5027218;28;19927;-42
2022/12/05 01:28:17;;;;;;;;;;;2.70;99.90;;;1.79;100.00;97086.16;5041754;28;20038;-41
2022/12/05 01:30:46;;;;;;;;;;;2.70;99.90;;;1.79;100.00;97091.34;5019751;28;20054;-43
2022/12/05 01:33:12;;;;;;;;;;;2.70;99.90;;;1.81;100.00;97085.28;5033814;28;20962;-41
2022/12/05 01:35:39;;;;;;;;;;;2.70;99.90;;;1.79;100.00;97092.22;5032792;28;20013;-43
2022/12/05 01:38:05;;;;;;;;;;;2.70;99.90;;;1.83;100.00;97087.84;5034748;28;20022;-43
2022/12/05 01:40:32;;;;;;;;;;;2.70;99.90;;;1.81;100.00;97087.88;5036695;28;20019;-42
2022/12/05 01:42:58;;;;;;;;;;;2.70;99.90;;;1.77;100.00;97087.91;5030134;28;19963;-41
2022/12/05 01:45:36;;;;;;;;;;;2.60;99.90;;;1.68;100.00;97089.69;5032843;28;20364;-42
2022/12/05 01:48:06;;;;;;;;;;;2.60;99.90;;;1.61;100.00;97097.53;5030105;28;20135;-42
2022/12/05 01:50:33;;;;;;;;;;;2.60;99.90;;;1.60;100.00;97096.69;5041788;28;20015;-42
2022/12/05 01:52:59;;;;;;;;;;;2.50;99.90;;;1.62;100.00;97107.94;5027854;28;19924;-41
2022/12/05 01:55:24;;;;;;;;;;;2.50;99.90;;;1.57;100.00;97108.84;5042356;28;19960;-42
2022/12/05 01:57:50;;;;;;;;;;;2.50;99.90;;;1.55;100.00;97108.84;5014036;28;19955;-41
2022/12/05 02:00:17;;;;;;;;;;;2.40;99.90;;;1.52;100.00;97108.84;5046368;28;19932;-42
2022/12/05 02:02:47;;;;;;;;;;;2.40;99.90;;;1.51;100.00;97099.34;5057103;28;19962;-41
2022/12/05 02:05:15;;;;;;;;;;;2.40;99.90;;;1.49;100.00;97104.56;5044451;28;20015;-42
2022/12/05 02:07:42;;;;;;;;;;;2.40;99.90;;;1.46;100.00;97103.72;5032965;28;19921;-42
2022/12/05 02:10:08;;;;;;;;;;;2.40;99.90;;;1.41;100.00;97101.13;5037573;28;20293;-42
2022/12/05 02:12:34;;;;;;;;;;;2.40;99.90;;;1.35;100.00;97108.97;5045202;28;20242;-44
2022/12/05 02:15:27;;;;;;;;;;;2.30;99.90;;;1.31;100.00;97115.03;5033754;28;19909;-43
2022/12/05 02:18:03;;;;;;;;;;;2.20;99.90;;;1.21;100.00;97113.38;5029148;28;20336;-42
2022/12/05 02:20:49;;;;;;;;;;;2.20;99.90;;;1.21;100.00;97115.97;5045462;28;20157;-43
2022/12/05 02:23:33;;;;;;;;;;;2.10;99.90;;;1.20;100.00;97116.81;5033128;28;19920;-42
2022/12/05 02:26:36;;;;;;;;;;;2.10;99.90;;;1.14;100.00;97113.38;5051663;28;19916;-42
2022/12/05 02:29:28;;;;;;;;;;;2.10;99.90;;;1.08;100.00;97116.00;5050186;28;19927;-42
2022/12/05 02:32:32;;;;;;;;;;;2.00;99.90;;;1.09;100.00;97132.44;5011517;28;19924;-42
2022/12/05 02:35:15;;;;;;;;;;;2.00;99.90;;;1.14;100.00;97144.53;5030021;28;19920;-42
2022/12/05 02:41:22;;;;;;;;;;;2.10;99.90;;;1.28;100.00;97152.28;5036037;28;20461;-43
2022/12/05 02:43:54;;;;;;;;;;;2.20;99.90;;;1.37;100.00;97150.53;5044306;28;19976;-45
2022/12/05 02:46:22;;;;;;;;;;;2.30;99.90;;;1.43;100.00;97145.28;5033392;28;19924;-42
2022/12/05 02:48:50;;;;;;;;;;;2.40;99.90;;;1.45;100.00;97149.59;5050956;28;19951;-42
2022/12/05 02:51:18;;;;;;;;;;;2.40;99.90;;;1.50;100.00;97155.63;5032968;28;19935;-43
2022/12/05 02:53:45;;;;;;;;;;;2.40;99.90;;;1.56;100.00;97154.75;5034712;28;20361;-43
2022/12/05 02:56:11;;;;;;;;;;;2.50;99.90;;;1.61;100.00;97162.53;5032921;28;19916;-45
2022/12/05 02:58:51;;;;;;;;;;;2.50;99.90;;;1.62;100.00;97180.72;5053279;28;20409;-41
2022/12/05 03:01:18;;;;;;;;;;;2.60;99.90;;;1.63;100.00;97164.25;5052790;28;19925;-42
2022/12/05 03:03:43;;;;;;;;;;;2.60;99.90;;;1.64;100.00;97165.13;5051639;28;20372;-43
2022/12/05 03:06:29;;;;;;;;;;;2.60;99.90;;;1.53;100.00;97144.38;5025114;28;19928;-42
2022/12/05 03:08:59;;;;;;;;;;;2.60;99.90;;;1.66;100.00;97155.56;5022268;28;19977;-42
2022/12/05 03:11:26;;;;;;;;;;;2.60;99.90;;;1.70;100.00;97147.72;5043846;28;20343;-42
2022/12/05 03:13:54;;;;;;;;;;;2.60;99.90;;;1.71;100.00;97143.41;5031139;28;19920;-44
2022/12/05 03:16:29;;;;;;;;;;;2.60;99.90;;;1.75;100.00;97149.47;5026189;28;19927;-42
2022/12/05 03:18:58;;;;;;;;;;;2.60;99.90;;;1.69;100.00;97117.44;5026989;28;20402;-42
2022/12/05 03:21:26;;;;;;;;;;;2.70;99.90;;;1.65;100.00;97131.31;5026616;28;19972;-44
2022/12/05 03:23:55;;;;;;;;;;;2.60;99.90;;;1.49;100.00;97124.47;5047769;28;19927;-42
2022/12/05 03:26:43;;;;;;;;;;;2.50;99.90;;;1.43;100.00;97129.69;5029585;28;19970;-42
2022/12/05 03:29:20;;;;;;;;;;;2.40;99.90;;;1.41;100.00;97132.31;5048666;28;20379;-41
2022/12/05 03:31:56;;;;;;;;;;;2.30;99.90;;;1.43;100.00;97145.28;5045246;28;19916;-44
2022/12/05 03:34:51;;;;;;;;;;;2.30;99.90;;;1.49;100.00;97145.25;5037888;28;19920;-41
2022/12/05 03:37:24;;;;;;;;;;;2.40;99.90;;;1.55;100.00;97139.19;5039344;28;19935;-41
2022/12/05 03:39:58;;;;;;;;;;;2.50;99.90;;;1.64;100.00;97134.78;5030363;28;19919;-43
2022/12/05 03:42:47;;;;;;;;;;;2.50;99.90;;;1.74;100.00;97142.53;5045730;28;19932;-42
2022/12/05 03:45:17;;;;;;;;;;;2.60;99.90;;;1.78;100.00;97144.25;5021451;28;19920;-41
2022/12/05 03:47:50;;;;;;;;;;;2.70;99.90;;;1.81;100.00;97139.91;5030631;28;21349;-43
2022/12/05 03:50:24;;;;;;;;;;;2.80;99.90;;;1.93;100.00;97156.28;5034928;28;20465;-42
2022/12/05 03:53:03;;;;;;;;;;;2.80;99.90;;;1.90;100.00;97142.44;5036829;28;19938;-42
2022/12/05 03:55:32;;;;;;;;;;;2.80;99.90;;;1.97;100.00;97152.78;5036839;28;19916;-43
2022/12/05 03:58:09;;;;;;;;;;;2.90;99.90;;;2.00;100.00;97150.16;5035925;28;19919;-42
2022/12/05 04:00:40;;;;;;;;;;;2.90;99.90;;;2.06;100.00;97138.00;5057867;28;19916;-42
2022/12/05 04:03:10;;;;;;;;;;;2.90;99.90;;;2.06;100.00;97135.38;5038410;28;20327;-41
2022/12/05 04:05:57;;;;;;;;;;;3.00;99.90;;;2.12;100.00;97142.28;5048732;28;19920;-42
2022/12/05 04:08:26;;;;;;;;;;;3.00;99.90;;;2.16;100.00;97135.31;5041939;28;19924;-41
2022/12/05 04:10:55;;;;;;;;;;;3.10;99.90;;;2.18;100.00;97136.16;5047250;28;19965;-41
2022/12/05 04:13:26;;;;;;;;;;;3.10;99.90;;;2.21;100.00;97123.13;5036135;28;19924;-42
2022/12/05 04:18:52;;;;;;;;;;;3.10;99.90;;;2.09;100.00;97124.94;5034290;28;19970;-42
2022/12/05 04:21:37;;;;;;;;;;;3.10;99.90;;;2.08;100.00;97136.22;5055648;22;19930;-57
2022/12/05 04:27:07;;;;;;;;;;;3.00;99.90;;;2.04;100.00;97155.31;5064412;28;19927;-57
2022/12/05 04:29:38;;;;;;;;;;;3.00;99.90;;;2.04;100.00;97168.31;5064512;28;19919;-57
2022/12/05 04:32:07;;;;;;;;;;;3.00;99.90;;;2.03;100.00;97161.41;5060816;28;20360;-57
2022/12/05 04:34:34;;;;;;;;;;;2.90;99.90;;;2.03;100.00;97160.56;5063772;28;19918;-57
2022/12/05 04:37:03;;;;;;;;;;;2.90;99.90;;;1.98;100.00;97170.97;5061367;28;20010;-57
2022/12/05 04:39:44;;;;;;;;;;;2.90;99.90;;;1.97;100.00;97171.84;5058673;28;20003;-51
2022/12/05 04:42:14;;;;;;;;;;;2.90;99.90;;;2.00;100.00;97174.44;5060749;28;20300;-53
2022/12/05 04:44:43;;;;;;;;;;;2.90;99.90;;;2.06;100.00;97173.53;5063108;28;19912;-57
2022/12/05 04:47:10;;;;;;;;;;;2.90;99.90;;;2.03;100.00;97161.41;5060646;28;19946;-57
2022/12/05 04:49:37;;;;;;;;;;;2.90;99.90;;;2.09;100.00;97178.72;5064450;28;19926;-57
2022/12/05 04:52:07;;;;;;;;;;;3.00;99.90;;;2.11;100.00;97182.16;5060329;28;19967;-60
2022/12/05 04:54:40;;;;;;;;;;;3.00;99.90;;;2.15;100.00;97181.25;5065202;28;19927;-59
2022/12/05 04:57:15;;;;;;;;;;;3.00;99.90;;;2.16;100.00;97171.72;5063144;28;20172;-60
2022/12/05 04:59:41;;;;;;;;;;;3.10;99.90;;;2.23;100.00;97168.22;5064112;28;19916;-57
2022/12/05 05:02:08;;;;;;;;;;;3.10;99.90;;;2.25;100.00;97177.72;5058532;28;19927;-57
2022/12/05 05:04:37;;;;;;;;;;;3.10;99.90;;;2.30;100.00;97177.69;5059264;28;19916;-57
2022/12/05 05:07:06;;;;;;;;;;;3.20;99.90;;;2.27;100.00;97172.50;5065506;28;20785;-57
2022/12/05 05:09:31;;;;;;;;;;;3.20;99.90;;;2.33;100.00;97177.66;5064531;28;19926;-57
2022/12/05 05:11:57;;;;;;;;;;;3.20;99.90;;;2.34;100.00;97184.59;5064798;28;19920;-56
2022/12/05 05:14:22;;;;;;;;;;;3.20;99.90;;;2.36;100.00;97188.03;5065513;28;20540;-57
2022/12/05 05:16:48;;;;;;;;;;;3.20;99.90;;;2.37;100.00;97184.59;5068973;28;19930;-57
2022/12/05 05:19:14;;;;;;;;;;;3.30;99.90;;;2.39;100.00;97182.81;5062821;28;20190;-57
2022/12/05 05:21:41;;;;;;;;;;;3.30;99.90;;;2.42;100.00;97181.91;5056776;28;19920;-57
2022/12/05 05:24:08;;;;;;;;;;;3.30;99.90;;;2.44;100.00;97183.66;5056825;28;19927;-58
2022/12/05 05:26:36;;;;;;;;;;;3.30;99.90;;;2.44;100.00;97190.56;5062369;28;19923;-57
2022/12/05 05:29:02;;;;;;;;;;;3.30;99.90;;;2.42;100.00;97201.03;5060743;28;20398;-57
2022/12/05 05:31:28;;;;;;;;;;;3.30;99.90;;;2.45;100.00;97203.59;5068177;28;19920;-58
2022/12/05 05:33:55;;;;;;;;;;;3.30;99.90;;;2.45;100.00;97205.34;5062066;28;20801;-58
2022/12/05 05:36:22;;;;;;;;;;;3.30;99.90;;;2.48;100.00;97216.59;5062601;28;20566;-57
2022/12/05 05:38:53;;;;;;;;;;;3.40;99.90;;;2.51;100.00;97220.03;5067389;28;20322;-58
2022/12/05 05:41:19;;;;;;;;;;;3.40;99.90;;;2.48;100.00;97219.19;5064413;28;21171;-58
2022/12/05 05:43:45;;;;;;;;;;;3.40;99.90;;;2.48;100.00;97203.56;5065621;28;19920;-57
2022/12/05 05:46:12;;;;;;;;;;;3.40;99.90;;;2.51;100.00;97212.22;5070332;28;20171;-57
2022/12/05 05:48:38;;;;;;;;;;;3.40;99.90;;;2.52;100.00;97216.56;5069314;28;19915;-57
2022/12/05 05:51:06;;;;;;;;;;;3.40;99.90;;;2.58;100.00;97232.13;5067254;28;19978;-57
2022/12/05 05:53:31;;;;;;;;;;;3.40;99.90;;;2.59;100.00;97233.88;5068430;28;20014;-58
2022/12/05 05:56:04;;;;;;;;;;;3.50;99.90;;;2.57;100.00;97226.06;5063254;28;20598;-57
2022/12/05 05:58:29;;;;;;;;;;;3.50;99.90;;;2.60;100.00;97222.56;5065870;28;19922;-57
2022/12/05 06:01:02;;;;;;;;;;;3.50;99.90;;;2.59;100.00;97213.03;5060513;28;19920;-57
2022/12/05 06:03:28;;;;;;;;;;;3.50;99.90;;;2.62;100.00;97215.59;5070400;28;20003;-57
2022/12/05 06:06:02;;;;;;;;;;;3.50;99.90;;;2.65;100.00;97212.97;5068142;28;19926;-57
2022/12/05 06:08:29;;;;;;;;;;;3.50;99.90;;;2.62;100.00;97207.78;5061831;28;19972;-57
2022/12/05 06:10:55;;;;;;;;;;;3.50;99.90;;;2.64;100.00;97208.66;5067063;28;19923;-59
2022/12/05 06:13:20;;;;;;;;;;;3.50;99.90;;;2.61;100.00;97214.75;5064298;28;19982;-57
2022/12/05 06:15:46;;;;;;;;;;;3.50;99.90;;;2.62;100.00;97221.69;5072686;28;20386;-57
2022/12/05 06:18:12;;;;;;;;;;;3.50;99.90;;;2.58;100.00;97225.19;5061933;28;20311;-57
2022/12/05 06:20:37;;;;;;;;;;;3.50;99.90;;;2.55;100.00;97227.81;5053008;28;20023;-58
2022/12/05 06:23:03;;;;;;;;;;;3.40;99.90;;;2.53;100.00;97236.50;5064545;28;19922;-57
2022/12/05 06:25:29;;;;;;;;;;;3.40;99.90;;;2.52;100.00;97240.84;5065253;28;19912;-58
2022/12/05 06:27:54;;;;;;;;;;;3.40;99.90;;;2.55;100.00;97222.63;5066036;28;20442;-57
2022/12/05 06:30:20;;;;;;;;;;;3.40;99.90;;;2.56;100.00;97226.94;5061136;28;19947;-57
2022/12/05 06:32:46;;;;;;;;;;;3.40;99.90;;;2.57;100.00;97239.09;5046956;22;19929;-58
2022/12/05 06:35:14;;;;;;;;;;;3.40;99.90;;;2.59;100.00;97255.56;5034868;28;19917;-59
2022/12/05 06:37:44;;;;;;;;;;;3.40;99.90;;;2.57;100.00;97261.66;5035060;28;19931;-57
2022/12/05 06:40:11;;;;;;;;;;;3.50;99.90;;;2.60;100.00;97264.22;5039895;28;19920;-57
2022/12/05 06:42:36;;;;;;;;;;;3.50;99.90;;;2.63;100.00;97264.19;5048680;28;19919;-57
2022/12/05 06:45:03;;;;;;;;;;;3.50;99.90;;;2.65;100.00;97273.72;5038836;28;19916;-57
2022/12/05 06:47:29;;;;;;;;;;;3.50;99.90;;;2.68;100.00;97278.91;5045855;28;20156;-57
2022/12/05 06:49:54;;;;;;;;;;;3.50;99.90;;;2.71;100.00;97278.03;5049699;28;20359;-57
2022/12/05 06:52:20;;;;;;;;;;;3.60;99.90;;;2.72;100.00;97266.72;5046035;28;20287;-57
2022/12/05 06:54:45;;;;;;;;;;;3.60;99.90;;;2.76;100.00;97272.78;5048582;28;19916;-57
2022/12/05 06:57:12;;;;;;;;;;;3.60;99.90;;;2.79;100.00;97270.16;5033274;28;20646;-57
2022/12/05 06:59:37;;;;;;;;;;;3.60;99.90;;;2.79;100.00;97280.56;5026513;28;19920;-57
2022/12/05 07:02:06;;;;;;;;;;;3.70;99.90;;;2.74;100.00;97272.78;5036010;28;20113;-57
2022/12/05 07:04:32;;;;;;;;;;;3.70;99.90;;;2.68;100.00;97257.22;5040748;28;20380;-58
2022/12/05 07:07:00;;;;;;;;;;;3.70;99.90;;;2.78;100.00;97282.31;5044001;28;19923;-58
2022/12/05 07:09:44;;;;;;;;;;;3.70;99.90;;;2.81;100.00;97284.03;5041522;28;20007;-58
2022/12/05 07:12:11;;;;;;;;;;;3.70;99.90;;;2.86;100.00;97279.66;5042022;28;20524;-58
2022/12/05 07:14:37;;;;;;;;;;;3.70;99.90;;;2.85;100.00;97281.41;5041909;28;19912;-58
2022/12/05 07:17:03;;;;;;;;;;;3.70;99.90;;;2.83;100.00;97272.72;5039534;28;19919;-58
2022/12/05 07:19:28;;;;;;;;;;;3.70;99.90;;;2.81;100.00;97279.69;5047776;28;19920;-58
2022/12/05 07:21:54;;;;;;;;;;;3.70;99.90;;;2.83;100.00;97297.91;5032415;28;19924;-58
2022/12/05 07:24:19;;;;;;;;;;;3.70;99.90;;;2.79;100.00;97306.63;5029895;28;20892;-58
2022/12/05 07:26:45;;;;;;;;;;;3.60;99.90;;;2.79;100.00;97310.09;5034001;28;19916;-58
2022/12/05 07:29:11;;;;;;;;;;;3.70;99.90;;;2.82;100.00;97312.66;5035437;28;20415;-58
2022/12/05 07:31:36;;;;;;;;;;;3.70;99.90;;;2.89;100.00;97304.78;5042702;28;20022;-57
2022/12/05 07:34:02;;;;;;;;;;;3.70;99.90;;;2.94;100.00;97309.09;5045518;28;20287;-57
2022/12/05 07:36:28;;;;;;;;;;;3.80;99.90;;;3.02;100.00;97309.91;5028554;28;20333;-58
2022/12/05 07:38:55;;;;;;;;;;;3.90;99.90;;;3.09;100.00;97313.31;5049235;28;19917;-58
2022/12/05 07:41:26;;;;;;;;;;;3.90;99.90;;;3.16;100.00;97311.50;5049077;28;20414;-58
2022/12/05 07:43:53;;;;;;;;;;;4.00;99.90;;;3.23;100.00;97308.84;5040478;28;19957;-58
2022/12/05 07:46:19;;;;;;;;;;;4.00;99.90;;;3.32;100.00;97299.19;5051083;28;19921;-58
2022/12/05 07:48:46;;;;;;;;;;;4.10;99.90;;;3.39;100.00;97304.38;5045144;28;19912;-58
2022/12/05 07:51:12;;;;;;;;;;;4.20;99.90;;;3.47;100.00;97306.88;5048413;28;20050;-58
2022/12/05 07:53:40;;;;;;;;;;;4.30;99.90;;;3.53;100.00;97305.94;5045915;28;19916;-58
2022/12/05 07:56:07;;;;;;;;;;;4.40;99.90;;;3.56;100.00;97319.81;5031903;28;19925;-58
2022/12/05 07:58:33;;;;;;;;;;;4.40;99.90;;;3.61;100.00;97312.81;5050346;28;19912;-58
2022/12/05 08:01:14;;;;;;;;;;;4.50;99.90;;;3.66;100.00;97311.91;5047704;28;19939;-59
2022/12/05 08:03:40;;;;;;;;;;;4.50;99.90;;;3.71;100.00;97315.31;5048669;28;20003;-58
2022/12/05 08:06:07;;;;;;;;;;;4.50;99.90;;;3.77;100.00;97317.88;5043797;28;20003;-58
2022/12/05 08:08:33;;;;;;;;;;;4.60;99.90;;;3.72;100.00;97296.19;5034706;28;19917;-58
2022/12/05 08:11:04;;;;;;;;;;;4.70;99.90;;;3.91;100.00;97325.53;5041478;28;19920;-58
2022/12/05 08:13:30;;;;;;;;;;;4.70;99.90;;;3.97;100.00;97320.25;5029083;28;20002;-58
2022/12/05 08:16:00;;;;;;;;;;;4.80;99.90;;;4.04;100.00;97323.63;5035442;28;20256;-58
2022/12/05 08:18:26;;;;;;;;;;;4.80;99.90;;;4.10;100.00;97329.66;5047220;28;20296;-58
2022/12/05 08:20:51;;;;;;;;;;;4.90;99.90;;;4.10;100.00;97328.78;5042812;28;20189;-58
2022/12/05 08:23:17;;;;;;;;;;;4.90;99.90;;;4.07;100.00;97331.44;5047832;28;19912;-58
2022/12/05 08:25:43;;;;;;;;;;;4.90;99.90;;;4.10;100.00;97344.44;5044737;28;20242;-58
2022/12/05 08:28:08;;;;;;;;;;;4.90;99.90;;;4.11;100.00;97344.44;5044273;28;19924;-58
2022/12/05 08:30:34;;;;;;;;;;;4.90;99.90;;;4.10;100.00;97341.84;5047909;28;20624;-58
2022/12/05 08:33:00;;;;;;;;;;;4.90;99.90;;;4.10;100.00;97344.44;5042401;28;20003;-58
2022/12/05 08:35:25;;;;;;;;;;;4.90;99.90;;;4.08;100.00;97346.22;5052405;28;20020;-58
2022/12/05 08:37:51;;;;;;;;;;;5.00;99.90;;;4.10;100.00;97353.13;5044704;28;19916;-58
2022/12/05 08:40:17;;;;;;;;;;;4.90;99.90;;;4.13;100.00;97353.09;5049671;28;20423;-58
2022/12/05 08:42:43;;;;;;;;;;;5.00;99.90;;;4.15;100.00;97368.75;5049493;28;19920;-58
2022/12/05 08:45:08;;;;;;;;;;;5.00;99.90;;;4.19;100.00;97360.00;5046357;28;20355;-58
2022/12/05 08:47:35;;;;;;;;;;;5.00;99.90;;;4.18;100.00;97363.47;5053182;28;19920;-58
2022/12/05 08:50:00;;;;;;;;;;;5.00;99.90;;;4.15;100.00;97361.78;5048643;28;20054;-58
2022/12/05 08:52:26;;;;;;;;;;;5.00;99.90;;;4.15;100.00;97366.16;5043249;28;19928;-48
2022/12/05 08:54:52;;;;;;;;;;;5.00;99.90;;;4.13;100.00;97374.00;5051651;28;19917;-57
2022/12/05 08:57:17;;;;;;;;;;;4.90;99.90;;;4.12;100.00;97368.78;5049308;28;19924;-56
2022/12/05 08:59:43;;;;;;;;;;;4.90;99.90;;;4.13;100.00;97366.16;5028872;28;19912;-57
2022/12/05 09:02:09;;;;;;;;;;;4.90;99.90;;;4.17;100.00;97366.97;5049169;28;19929;-56
2022/12/05 09:04:35;;;;;;;;;;;4.90;99.90;;;4.20;100.00;97366.97;5051358;28;19962;-58
2022/12/05 09:07:02;;;;;;;;;;;5.00;99.90;;;4.27;100.00;97368.59;5048426;28;20003;-56
2022/12/05 09:09:28;;;;;;;;;;;5.10;99.90;;;4.34;100.00;97377.22;5046951;28;19912;-56
2022/12/05 09:11:53;;;;;;;;;;;5.10;99.90;;;4.37;100.00;97370.19;5045283;28;19920;-56
2022/12/05 09:14:19;;;;;;;;;;;5.10;99.90;;;4.43;100.00;97378.84;5049897;28;20387;-52
2022/12/05 09:16:46;;;;;;;;;;;5.20;99.90;;;4.48;100.00;97380.50;5029313;28;19959;-56
2022/12/05 09:19:18;;;;;;;;;;;5.30;99.90;;;4.54;100.00;97392.63;5045747;28;19920;-56
2022/12/05 09:21:44;;;;;;;;;;;5.30;99.90;;;4.57;100.00;97390.81;5046470;28;19948;-56
2022/12/05 09:24:11;;;;;;;;;;;5.30;99.90;;;4.61;100.00;97396.88;5051545;28;20671;-53
2022/12/05 09:26:37;;;;;;;;;;;5.40;99.90;;;4.64;100.00;97406.44;5052085;28;22951;-61
2022/12/05 09:29:02;;;;;;;;;;;5.40;99.90;;;4.67;100.00;97404.66;5047905;28;20383;-61
2022/12/05 09:31:29;;;;;;;;;;;5.40;99.90;;;4.72;100.00;97399.34;5051085;28;19920;-61
2022/12/05 09:33:55;;;;;;;;;;;5.50;99.90;;;4.79;100.00;97406.22;5048382;28;19935;-61
2022/12/05 09:36:26;;;;;;;;;;;5.50;99.90;;;4.83;100.00;97409.66;5050759;28;20360;-61
2022/12/05 09:38:52;;;;;;;;;;;5.60;99.90;;;4.85;100.00;97403.53;5049340;28;19952;-60
2022/12/05 09:44:32;;;;;;;;;;;5.70;99.90;;;4.91;100.00;97410.41;5044110;28;19963;-60
2022/12/05 09:47:07;;;;;;;;;;;5.70;99.90;;;4.93;100.00;97411.25;5050500;28;20372;-61
2022/12/05 09:49:33;;;;;;;;;;;5.70;99.90;;;4.99;100.00;97411.19;5043604;28;19936;-60
2022/12/05 09:51:59;;;;;;;;;;;5.80;99.90;;;5.05;100.00;97416.31;5034824;28;19920;-61
2022/12/05 09:54:26;;;;;;;;;;;5.80;99.90;;;5.08;100.00;97421.50;5049487;28;20178;-60
2022/12/05 09:56:52;;;;;;;;;;;5.80;99.90;;;5.07;100.00;97411.06;5031341;28;19954;-60
2022/12/05 09:59:19;;;;;;;;;;;5.90;99.90;;;5.05;100.00;97410.22;5047885;28;20330;-60
2022/12/05 10:01:54;;;;;;;;;;;5.80;99.90;;;4.96;100.00;97406.00;5029870;28;19925;-60
2022/12/05 10:04:45;;;;;;;;;;;5.90;99.90;;;4.98;100.00;97412.91;5029883;28;19924;-60
2022/12/05 10:07:29;;;;;;;;;;;5.80;99.90;;;4.95;100.00;97419.94;5035179;28;19943;-60
2022/12/05 10:10:24;;;;;;;;;;;5.80;99.90;;;4.93;100.00;97419.09;5025433;28;19920;-60
2022/12/05 10:13:34;;;;;;;;;;;5.70;99.90;;;4.86;100.00;97405.25;5029970;28;20296;-60
2022/12/05 10:16:06;;;;;;;;;;;5.70;99.90;;;4.93;100.00;97421.72;5036373;28;19927;-52
2022/12/05 10:18:48;;;;;;;;;;;5.70;99.90;;;4.92;100.00;97420.00;5044041;28;19960;-57
2022/12/05 10:23:57;;;;;;;;;;;5.70;99.90;;;4.77;100.00;97387.09;5005798;28;19929;-40
2022/12/05 10:26:26;;;;;;;;;;;5.70;99.90;;;4.93;100.00;97421.72;5012876;28;19947;-41
2022/12/05 10:29:16;;;;;;;;;;;5.70;99.90;;;4.91;100.00;97418.25;5012847;28;19945;-40
2022/12/05 10:31:43;;;;;;;;;;;5.70;99.90;;;4.91;100.00;97411.28;5008889;28;20054;-40
2022/12/05 10:34:30;;;;;;;;;;;5.70;99.90;;;4.96;100.00;97411.22;4995319;28;19920;-40
2022/12/05 10:37:01;;;;;;;;;;;5.70;99.90;;;5.02;100.00;97407.66;5008719;28;19920;-40
2022/12/05 10:39:27;;;;;;;;;;;5.80;99.90;;;5.04;100.00;97390.19;5013068;28;20276;-40
2022/12/05 10:41:53;;;;;;;;;;;5.90;99.90;;;5.29;100.00;97408.97;5010748;28;19925;-40
2022/12/05 10:44:18;;;;;;;;;;;6.00;99.90;;;5.51;100.00;97409.50;5012829;28;20368;-40
2022/12/05 10:46:44;;;;;;;;;;;6.30;99.90;;;5.77;100.00;97401.19;5015774;28;19920;-40
2022/12/05 10:49:11;;;;;;;;;;;6.50;99.90;;;6.03;100.00;97397.25;4995798;28;20624;-40
2022/12/05 10:51:37;;;;;;;;;;;6.70;99.90;;;6.36;100.00;97389.66;5012694;28;20462;-40
2022/12/05 10:54:15;;;;;;;;;;;7.00;99.90;;;6.54;100.00;97389.28;5013296;28;19927;-40
2022/12/05 10:56:51;;;;;;;;;;;7.30;99.90;;;6.86;100.00;97404.31;5008058;28;19958;-40
2022/12/05 10:59:25;;;;;;;;;;;7.60;99.90;;;7.01;100.00;97399.59;5012121;28;20037;-40
2022/12/05 11:02:02;;;;;;;;;;;7.80;99.90;;;7.25;100.00;97398.19;5011035;28;20145;-40
2022/12/05 11:04:31;;;;;;;;;;;8.00;99.90;;;7.40;100.00;97402.22;4994518;28;19971;-40
2022/12/05 11:06:59;;;;;;;;;;;8.20;99.90;;;7.45;100.00;97402.97;5015753;28;19952;-40
2022/12/05 11:09:33;;;;;;;;;;;8.30;99.90;;;7.31;100.00;97394.56;4995217;28;20381;-41
2022/12/05 11:12:04;;;;;;;;;;;8.20;99.90;;;7.28;100.00;97399.88;4997634;28;19917;-40
2022/12/05 11:14:33;;;;;;;;;;;8.10;99.90;;;7.36;100.00;97397.94;5008633;28;20178;-40
2022/12/05 11:17:00;;;;;;;;;;;8.10;99.90;;;7.35;100.00;97402.31;5009678;28;19917;-40
2022/12/05 11:19:30;;;;;;;;;;;8.10;99.90;;;7.32;100.00;97399.78;5013190;28;19912;-40
2022/12/05 11:21:56;;;;;;;;;;;8.10;99.90;;;7.19;100.00;97400.94;5014915;28;19925;-40
2022/12/05 11:24:30;;;;;;;;;;;8.00;99.90;;;7.14;100.00;97392.31;4996159;28;19974;-40
2022/12/05 11:26:58;;;;;;;;;;;7.90;99.90;;;6.96;100.00;97391.84;5019869;28;20003;-40
2022/12/05 11:29:29;;;;;;;;;;;7.80;99.90;;;6.83;100.00;97379.91;5014128;28;20293;-39
2022/12/05 11:31:55;;;;;;;;;;;7.70;99.90;;;6.68;100.00;97387.22;5017529;28;19917;-39
2022/12/05 11:34:25;;;;;;;;;;;7.50;99.90;;;6.71;100.00;97391.50;5013775;28;19919;-39
2022/12/05 11:37:04;;;;;;;;;;;7.50;99.90;;;6.52;100.00;97388.44;4999768;28;19960;-39
2022/12/05 11:39:30;;;;;;;;;;;7.40;99.90;;;6.42;100.00;97385.13;4999496;28;19921;-39
2022/12/05 11:42:25;;;;;;;;;;;7.30;99.90;;;6.52;100.00;97385.81;5015767;28;20318;-39
2022/12/05 11:44:54;;;;;;;;;;;7.30;99.90;;;6.60;100.00;97386.50;4991435;28;19968;-40
2022/12/05 11:47:39;;;;;;;;;;;7.30;99.90;;;6.60;100.00;97381.25;5015512;28;20365;-39
2022/12/05 11:50:18;;;;;;;;;;;7.40;99.90;;;6.67;100.00;97385.47;5007313;28;19921;-39